sensor_id;sensor_type;location;lat;lon;timestamp;P1;durP1;ratioP1;P2;durP2;ratioP2
80536;SDS011;69867;47.074;15.404;2023-05-07T00:00:13;10.18;;;7.97;;
80536;SDS011;69867;47.074;15.404;2023-05-07T00:02:39;14.07;;;6.88;;
80536;SDS011;69867;47.074;15.404;2023-05-07T00:05:04;10.18;;;7.35;;
80536;SDS011;69867;47.074;15.404;2023-05-07T00:07:30;10.50;;;7.72;;
80536;SDS011;69867;47.074;15.404;2023-05-07T00:09:55;9.90;;;6.82;;
80536;SDS011;69867;47.074;15.404;2023-05-07T00:12:21;9.73;;;6.70;;
80536;SDS011;69867;47.074;15.404;2023-05-07T00:14:46;10.25;;;6.78;;
80536;SDS011;69867;47.074;15.404;2023-05-07T00:17:12;9.52;;;6.50;;
80536;SDS011;69867;47.074;15.404;2023-05-07T00:19:37;9.02;;;6.40;;
80536;SDS011;69867;47.074;15.404;2023-05-07T00:22:02;8.40;;;6.28;;
80536;SDS011;69867;47.074;15.404;2023-05-07T00:24:28;7.43;;;5.45;;
80536;SDS011;69867;47.074;15.404;2023-05-07T00:26:53;8.27;;;5.20;;
80536;SDS011;69867;47.074;15.404;2023-05-07T00:29:18;8.45;;;5.43;;
80536;SDS011;69867;47.074;15.404;2023-05-07T00:31:44;7.72;;;5.70;;
80536;SDS011;69867;47.074;15.404;2023-05-07T00:34:09;7.78;;;5.20;;
80536;SDS011;69867;47.074;15.404;2023-05-07T00:36:35;7.10;;;5.47;;
80536;SDS011;69867;47.074;15.404;2023-05-07T00:39:00;7.05;;;5.07;;
80536;SDS011;69867;47.074;15.404;2023-05-07T00:41:26;7.32;;;5.20;;
80536;SDS011;69867;47.074;15.404;2023-05-07T00:43:51;7.95;;;5.22;;
80536;SDS011;69867;47.074;15.404;2023-05-07T00:46:17;6.97;;;5.15;;
80536;SDS011;69867;47.074;15.404;2023-05-07T00:48:44;6.38;;;4.85;;
80536;SDS011;69867;47.074;15.404;2023-05-07T00:51:10;6.68;;;4.78;;
80536;SDS011;69867;47.074;15.404;2023-05-07T00:53:36;7.10;;;4.80;;
80536;SDS011;69867;47.074;15.404;2023-05-07T00:56:01;5.82;;;4.25;;
80536;SDS011;69867;47.074;15.404;2023-05-07T00:58:27;5.82;;;4.35;;
80536;SDS011;69867;47.074;15.404;2023-05-07T01:00:52;7.13;;;4.97;;
80536;SDS011;69867;47.074;15.404;2023-05-07T01:03:17;6.78;;;5.30;;
80536;SDS011;69867;47.074;15.404;2023-05-07T01:05:43;6.45;;;4.38;;
80536;SDS011;69867;47.074;15.404;2023-05-07T01:08:10;6.68;;;4.40;;
80536;SDS011;69867;47.074;15.404;2023-05-07T01:10:36;7.07;;;4.15;;
80536;SDS011;69867;47.074;15.404;2023-05-07T01:13:01;6.85;;;4.10;;
80536;SDS011;69867;47.074;15.404;2023-05-07T01:15:27;5.90;;;4.03;;
80536;SDS011;69867;47.074;15.404;2023-05-07T01:17:52;7.95;;;3.97;;
80536;SDS011;69867;47.074;15.404;2023-05-07T01:20:18;6.30;;;3.50;;
80536;SDS011;69867;47.074;15.404;2023-05-07T01:22:44;5.57;;;2.85;;
80536;SDS011;69867;47.074;15.404;2023-05-07T01:25:09;6.43;;;3.88;;
80536;SDS011;69867;47.074;15.404;2023-05-07T01:27:35;6.05;;;3.88;;
80536;SDS011;69867;47.074;15.404;2023-05-07T01:30:00;6.63;;;3.38;;
80536;SDS011;69867;47.074;15.404;2023-05-07T01:32:32;5.70;;;3.45;;
80536;SDS011;69867;47.074;15.404;2023-05-07T01:35:02;5.20;;;3.15;;
80536;SDS011;69867;47.074;15.404;2023-05-07T01:37:32;4.88;;;3.05;;
80536;SDS011;69867;47.074;15.404;2023-05-07T01:39:58;4.63;;;2.90;;
80536;SDS011;69867;47.074;15.404;2023-05-07T01:42:23;4.80;;;2.80;;
80536;SDS011;69867;47.074;15.404;2023-05-07T01:44:49;6.93;;;4.00;;
80536;SDS011;69867;47.074;15.404;2023-05-07T01:47:15;5.65;;;4.00;;
80536;SDS011;69867;47.074;15.404;2023-05-07T01:49:41;5.05;;;3.17;;
80536;SDS011;69867;47.074;15.404;2023-05-07T01:52:07;4.65;;;3.65;;
80536;SDS011;69867;47.074;15.404;2023-05-07T01:54:33;5.13;;;3.42;;
80536;SDS011;69867;47.074;15.404;2023-05-07T01:56:58;5.07;;;3.30;;
80536;SDS011;69867;47.074;15.404;2023-05-07T01:59:23;6.40;;;3.85;;
80536;SDS011;69867;47.074;15.404;2023-05-07T02:01:49;4.65;;;3.17;;
80536;SDS011;69867;47.074;15.404;2023-05-07T02:04:14;5.63;;;3.42;;
80536;SDS011;69867;47.074;15.404;2023-05-07T02:06:39;5.93;;;3.45;;
80536;SDS011;69867;47.074;15.404;2023-05-07T02:09:05;4.80;;;3.03;;
80536;SDS011;69867;47.074;15.404;2023-05-07T02:11:30;5.55;;;3.38;;
80536;SDS011;69867;47.074;15.404;2023-05-07T02:13:55;6.47;;;4.22;;
80536;SDS011;69867;47.074;15.404;2023-05-07T02:16:21;6.68;;;3.63;;
80536;SDS011;69867;47.074;15.404;2023-05-07T02:18:46;5.60;;;3.33;;
80536;SDS011;69867;47.074;15.404;2023-05-07T02:21:12;6.10;;;3.85;;
80536;SDS011;69867;47.074;15.404;2023-05-07T02:23:37;6.25;;;4.07;;
80536;SDS011;69867;47.074;15.404;2023-05-07T02:26:03;5.32;;;3.38;;
80536;SDS011;69867;47.074;15.404;2023-05-07T02:28:29;5.43;;;3.33;;
80536;SDS011;69867;47.074;15.404;2023-05-07T02:30:54;4.55;;;3.05;;
80536;SDS011;69867;47.074;15.404;2023-05-07T02:33:20;5.00;;;3.20;;
80536;SDS011;69867;47.074;15.404;2023-05-07T02:35:45;6.20;;;4.13;;
80536;SDS011;69867;47.074;15.404;2023-05-07T02:38:11;4.45;;;3.22;;
80536;SDS011;69867;47.074;15.404;2023-05-07T02:40:36;4.82;;;3.20;;
80536;SDS011;69867;47.074;15.404;2023-05-07T02:43:02;4.40;;;3.10;;
80536;SDS011;69867;47.074;15.404;2023-05-07T02:45:27;4.38;;;2.63;;
80536;SDS011;69867;47.074;15.404;2023-05-07T02:47:52;4.57;;;3.42;;
80536;SDS011;69867;47.074;15.404;2023-05-07T02:50:18;6.00;;;3.70;;
80536;SDS011;69867;47.074;15.404;2023-05-07T02:52:43;5.22;;;3.42;;
80536;SDS011;69867;47.074;15.404;2023-05-07T02:55:08;5.60;;;3.42;;
80536;SDS011;69867;47.074;15.404;2023-05-07T02:57:34;4.90;;;3.20;;
80536;SDS011;69867;47.074;15.404;2023-05-07T02:59:59;6.45;;;2.45;;
80536;SDS011;69867;47.074;15.404;2023-05-07T03:02:24;6.25;;;3.75;;
80536;SDS011;69867;47.074;15.404;2023-05-07T03:04:50;4.88;;;3.25;;
80536;SDS011;69867;47.074;15.404;2023-05-07T03:07:15;4.97;;;3.00;;
80536;SDS011;69867;47.074;15.404;2023-05-07T03:09:40;5.68;;;3.05;;
80536;SDS011;69867;47.074;15.404;2023-05-07T03:12:06;6.00;;;3.30;;
80536;SDS011;69867;47.074;15.404;2023-05-07T03:14:31;4.70;;;3.25;;
80536;SDS011;69867;47.074;15.404;2023-05-07T03:16:57;4.75;;;3.25;;
80536;SDS011;69867;47.074;15.404;2023-05-07T03:19:22;6.15;;;3.28;;
80536;SDS011;69867;47.074;15.404;2023-05-07T03:21:47;5.57;;;3.08;;
80536;SDS011;69867;47.074;15.404;2023-05-07T03:24:13;4.90;;;3.03;;
80536;SDS011;69867;47.074;15.404;2023-05-07T03:26:38;5.20;;;3.05;;
80536;SDS011;69867;47.074;15.404;2023-05-07T03:29:03;4.95;;;2.88;;
80536;SDS011;69867;47.074;15.404;2023-05-07T03:31:29;5.70;;;3.28;;
80536;SDS011;69867;47.074;15.404;2023-05-07T03:33:55;5.28;;;3.20;;
80536;SDS011;69867;47.074;15.404;2023-05-07T03:36:22;3.78;;;2.35;;
80536;SDS011;69867;47.074;15.404;2023-05-07T03:38:48;4.47;;;3.03;;
80536;SDS011;69867;47.074;15.404;2023-05-07T03:41:14;5.80;;;3.25;;
80536;SDS011;69867;47.074;15.404;2023-05-07T03:43:39;4.35;;;2.65;;
80536;SDS011;69867;47.074;15.404;2023-05-07T03:46:05;5.53;;;2.92;;
80536;SDS011;69867;47.074;15.404;2023-05-07T03:48:30;3.90;;;2.38;;
80536;SDS011;69867;47.074;15.404;2023-05-07T03:50:56;4.70;;;3.17;;
80536;SDS011;69867;47.074;15.404;2023-05-07T03:53:22;5.00;;;3.40;;
80536;SDS011;69867;47.074;15.404;2023-05-07T03:55:48;4.75;;;3.08;;
80536;SDS011;69867;47.074;15.404;2023-05-07T03:58:13;5.10;;;2.97;;
80536;SDS011;69867;47.074;15.404;2023-05-07T04:00:39;5.13;;;3.35;;
80536;SDS011;69867;47.074;15.404;2023-05-07T04:03:04;6.55;;;3.75;;
80536;SDS011;69867;47.074;15.404;2023-05-07T04:05:30;4.38;;;2.90;;
80536;SDS011;69867;47.074;15.404;2023-05-07T04:07:55;4.80;;;2.75;;
80536;SDS011;69867;47.074;15.404;2023-05-07T04:10:22;4.65;;;2.88;;
80536;SDS011;69867;47.074;15.404;2023-05-07T04:12:47;4.15;;;2.78;;
80536;SDS011;69867;47.074;15.404;2023-05-07T04:15:13;4.22;;;2.90;;
80536;SDS011;69867;47.074;15.404;2023-05-07T04:17:38;4.55;;;2.42;;
80536;SDS011;69867;47.074;15.404;2023-05-07T04:20:03;5.07;;;3.17;;
80536;SDS011;69867;47.074;15.404;2023-05-07T04:22:29;5.18;;;3.50;;
80536;SDS011;69867;47.074;15.404;2023-05-07T04:24:55;4.43;;;3.15;;
80536;SDS011;69867;47.074;15.404;2023-05-07T04:27:20;8.30;;;4.60;;
80536;SDS011;69867;47.074;15.404;2023-05-07T04:29:45;5.60;;;2.90;;
80536;SDS011;69867;47.074;15.404;2023-05-07T04:32:10;4.90;;;2.97;;
80536;SDS011;69867;47.074;15.404;2023-05-07T04:34:36;4.80;;;2.90;;
80536;SDS011;69867;47.074;15.404;2023-05-07T04:37:01;5.03;;;3.25;;
80536;SDS011;69867;47.074;15.404;2023-05-07T04:39:26;3.92;;;2.60;;
80536;SDS011;69867;47.074;15.404;2023-05-07T04:41:52;4.68;;;2.95;;
80536;SDS011;69867;47.074;15.404;2023-05-07T04:44:17;5.32;;;2.75;;
80536;SDS011;69867;47.074;15.404;2023-05-07T04:46:42;5.18;;;3.28;;
80536;SDS011;69867;47.074;15.404;2023-05-07T04:49:08;4.90;;;3.65;;
80536;SDS011;69867;47.074;15.404;2023-05-07T04:51:33;5.05;;;3.25;;
80536;SDS011;69867;47.074;15.404;2023-05-07T04:53:58;5.53;;;3.53;;
80536;SDS011;69867;47.074;15.404;2023-05-07T04:56:23;4.95;;;3.08;;
80536;SDS011;69867;47.074;15.404;2023-05-07T04:58:49;5.13;;;3.25;;
80536;SDS011;69867;47.074;15.404;2023-05-07T05:01:14;4.43;;;2.80;;
80536;SDS011;69867;47.074;15.404;2023-05-07T05:03:39;4.57;;;2.60;;
80536;SDS011;69867;47.074;15.404;2023-05-07T05:06:05;3.97;;;2.75;;
80536;SDS011;69867;47.074;15.404;2023-05-07T05:08:30;5.07;;;2.80;;
80536;SDS011;69867;47.074;15.404;2023-05-07T05:10:56;4.32;;;2.70;;
80536;SDS011;69867;47.074;15.404;2023-05-07T05:13:21;5.88;;;3.10;;
80536;SDS011;69867;47.074;15.404;2023-05-07T05:15:46;4.97;;;3.40;;
80536;SDS011;69867;47.074;15.404;2023-05-07T05:18:12;5.30;;;3.35;;
80536;SDS011;69867;47.074;15.404;2023-05-07T05:20:37;7.30;;;4.10;;
80536;SDS011;69867;47.074;15.404;2023-05-07T05:23:02;5.60;;;3.85;;
80536;SDS011;69867;47.074;15.404;2023-05-07T05:25:28;6.15;;;3.75;;
80536;SDS011;69867;47.074;15.404;2023-05-07T05:27:53;6.50;;;3.50;;
80536;SDS011;69867;47.074;15.404;2023-05-07T05:30:18;5.25;;;3.90;;
80536;SDS011;69867;47.074;15.404;2023-05-07T05:32:44;5.80;;;3.42;;
80536;SDS011;69867;47.074;15.404;2023-05-07T05:35:09;5.60;;;4.13;;
80536;SDS011;69867;47.074;15.404;2023-05-07T05:37:34;6.53;;;4.35;;
80536;SDS011;69867;47.074;15.404;2023-05-07T05:40:00;7.40;;;4.28;;
80536;SDS011;69867;47.074;15.404;2023-05-07T05:42:25;6.63;;;4.20;;
80536;SDS011;69867;47.074;15.404;2023-05-07T05:44:50;5.35;;;3.78;;
80536;SDS011;69867;47.074;15.404;2023-05-07T05:47:16;4.68;;;3.20;;
80536;SDS011;69867;47.074;15.404;2023-05-07T05:49:41;4.57;;;2.72;;
80536;SDS011;69867;47.074;15.404;2023-05-07T05:52:07;4.63;;;2.95;;
80536;SDS011;69867;47.074;15.404;2023-05-07T05:54:32;4.20;;;2.63;;
80536;SDS011;69867;47.074;15.404;2023-05-07T05:56:57;4.47;;;2.17;;
80536;SDS011;69867;47.074;15.404;2023-05-07T05:59:23;4.28;;;2.63;;
80536;SDS011;69867;47.074;15.404;2023-05-07T06:01:48;4.32;;;2.28;;
80536;SDS011;69867;47.074;15.404;2023-05-07T06:04:13;4.13;;;2.47;;
80536;SDS011;69867;47.074;15.404;2023-05-07T06:06:39;4.70;;;2.22;;
80536;SDS011;69867;47.074;15.404;2023-05-07T06:09:04;3.78;;;2.10;;
80536;SDS011;69867;47.074;15.404;2023-05-07T06:11:29;4.00;;;2.60;;
80536;SDS011;69867;47.074;15.404;2023-05-07T06:13:56;4.03;;;2.53;;
80536;SDS011;69867;47.074;15.404;2023-05-07T06:16:22;3.65;;;2.42;;
80536;SDS011;69867;47.074;15.404;2023-05-07T06:18:47;4.85;;;2.50;;
80536;SDS011;69867;47.074;15.404;2023-05-07T06:21:13;4.38;;;2.30;;
80536;SDS011;69867;47.074;15.404;2023-05-07T06:23:38;4.50;;;2.28;;
80536;SDS011;69867;47.074;15.404;2023-05-07T06:26:04;3.17;;;1.90;;
80536;SDS011;69867;47.074;15.404;2023-05-07T06:28:29;4.15;;;2.08;;
80536;SDS011;69867;47.074;15.404;2023-05-07T06:30:54;3.97;;;2.17;;
80536;SDS011;69867;47.074;15.404;2023-05-07T06:33:20;3.08;;;1.88;;
80536;SDS011;69867;47.074;15.404;2023-05-07T06:35:45;4.05;;;1.73;;
80536;SDS011;69867;47.074;15.404;2023-05-07T06:38:10;4.15;;;1.95;;
80536;SDS011;69867;47.074;15.404;2023-05-07T06:40:36;4.13;;;2.08;;
80536;SDS011;69867;47.074;15.404;2023-05-07T06:43:01;3.55;;;1.55;;
80536;SDS011;69867;47.074;15.404;2023-05-07T06:45:26;3.60;;;1.75;;
80536;SDS011;69867;47.074;15.404;2023-05-07T06:47:52;3.42;;;1.90;;
80536;SDS011;69867;47.074;15.404;2023-05-07T06:50:17;4.00;;;2.20;;
80536;SDS011;69867;47.074;15.404;2023-05-07T06:52:42;4.90;;;2.58;;
80536;SDS011;69867;47.074;15.404;2023-05-07T06:55:08;2.80;;;1.67;;
80536;SDS011;69867;47.074;15.404;2023-05-07T06:57:34;4.28;;;2.15;;
80536;SDS011;69867;47.074;15.404;2023-05-07T06:59:59;3.05;;;2.10;;
80536;SDS011;69867;47.074;15.404;2023-05-07T07:02:24;3.92;;;2.60;;
80536;SDS011;69867;47.074;15.404;2023-05-07T07:04:50;4.70;;;2.72;;
80536;SDS011;69867;47.074;15.404;2023-05-07T07:07:15;3.75;;;2.05;;
80536;SDS011;69867;47.074;15.404;2023-05-07T07:09:40;9.40;;;5.13;;
80536;SDS011;69867;47.074;15.404;2023-05-07T07:12:06;3.67;;;2.22;;
80536;SDS011;69867;47.074;15.404;2023-05-07T07:14:31;4.38;;;2.22;;
80536;SDS011;69867;47.074;15.404;2023-05-07T07:16:56;3.88;;;2.13;;
80536;SDS011;69867;47.074;15.404;2023-05-07T07:19:22;3.45;;;2.40;;
80536;SDS011;69867;47.074;15.404;2023-05-07T07:21:47;6.32;;;2.20;;
80536;SDS011;69867;47.074;15.404;2023-05-07T07:24:13;4.03;;;2.63;;
80536;SDS011;69867;47.074;15.404;2023-05-07T07:26:38;2.85;;;2.00;;
80536;SDS011;69867;47.074;15.404;2023-05-07T07:29:04;4.00;;;2.38;;
80536;SDS011;69867;47.074;15.404;2023-05-07T07:31:29;3.53;;;2.00;;
80536;SDS011;69867;47.074;15.404;2023-05-07T07:33:54;3.42;;;2.40;;
80536;SDS011;69867;47.074;15.404;2023-05-07T07:36:20;4.90;;;2.40;;
80536;SDS011;69867;47.074;15.404;2023-05-07T07:38:45;4.55;;;2.47;;
80536;SDS011;69867;47.074;15.404;2023-05-07T07:41:10;4.38;;;3.17;;
80536;SDS011;69867;47.074;15.404;2023-05-07T07:43:36;4.85;;;3.15;;
80536;SDS011;69867;47.074;15.404;2023-05-07T07:46:01;4.00;;;2.67;;
80536;SDS011;69867;47.074;15.404;2023-05-07T07:48:26;4.25;;;2.92;;
80536;SDS011;69867;47.074;15.404;2023-05-07T07:50:52;4.07;;;2.80;;
80536;SDS011;69867;47.074;15.404;2023-05-07T07:53:17;4.28;;;2.92;;
80536;SDS011;69867;47.074;15.404;2023-05-07T07:55:43;3.67;;;2.25;;
80536;SDS011;69867;47.074;15.404;2023-05-07T07:58:09;4.38;;;3.00;;
80536;SDS011;69867;47.074;15.404;2023-05-07T08:00:34;4.13;;;2.75;;
80536;SDS011;69867;47.074;15.404;2023-05-07T08:02:59;5.47;;;3.28;;
80536;SDS011;69867;47.074;15.404;2023-05-07T08:05:25;5.60;;;3.13;;
80536;SDS011;69867;47.074;15.404;2023-05-07T08:07:50;3.90;;;2.63;;
80536;SDS011;69867;47.074;15.404;2023-05-07T08:10:15;4.40;;;2.55;;
80536;SDS011;69867;47.074;15.404;2023-05-07T08:12:41;4.38;;;2.90;;
80536;SDS011;69867;47.074;15.404;2023-05-07T08:15:06;3.95;;;2.75;;
80536;SDS011;69867;47.074;15.404;2023-05-07T08:17:32;4.13;;;3.10;;
80536;SDS011;69867;47.074;15.404;2023-05-07T08:19:57;4.85;;;2.92;;
80536;SDS011;69867;47.074;15.404;2023-05-07T08:22:23;3.90;;;2.80;;
80536;SDS011;69867;47.074;15.404;2023-05-07T08:24:48;4.10;;;2.45;;
80536;SDS011;69867;47.074;15.404;2023-05-07T08:27:13;4.72;;;3.10;;
80536;SDS011;69867;47.074;15.404;2023-05-07T08:29:39;5.82;;;4.22;;
80536;SDS011;69867;47.074;15.404;2023-05-07T08:32:04;3.95;;;3.08;;
80536;SDS011;69867;47.074;15.404;2023-05-07T08:34:29;4.32;;;2.60;;
80536;SDS011;69867;47.074;15.404;2023-05-07T08:36:55;4.75;;;3.25;;
80536;SDS011;69867;47.074;15.404;2023-05-07T08:39:20;4.53;;;3.30;;
80536;SDS011;69867;47.074;15.404;2023-05-07T08:41:45;4.10;;;3.38;;
80536;SDS011;69867;47.074;15.404;2023-05-07T08:44:13;4.05;;;3.38;;
80536;SDS011;69867;47.074;15.404;2023-05-07T08:46:38;6.15;;;3.40;;
80536;SDS011;69867;47.074;15.404;2023-05-07T08:49:04;4.53;;;3.35;;
80536;SDS011;69867;47.074;15.404;2023-05-07T08:51:30;4.80;;;3.05;;
80536;SDS011;69867;47.074;15.404;2023-05-07T08:53:55;4.18;;;2.63;;
80536;SDS011;69867;47.074;15.404;2023-05-07T08:56:20;4.20;;;2.80;;
80536;SDS011;69867;47.074;15.404;2023-05-07T08:58:46;6.60;;;2.92;;
80536;SDS011;69867;47.074;15.404;2023-05-07T09:01:13;5.22;;;2.80;;
80536;SDS011;69867;47.074;15.404;2023-05-07T09:03:40;3.78;;;2.42;;
80536;SDS011;69867;47.074;15.404;2023-05-07T09:06:06;5.15;;;3.22;;
80536;SDS011;69867;47.074;15.404;2023-05-07T09:08:32;4.38;;;3.05;;
80536;SDS011;69867;47.074;15.404;2023-05-07T09:10:58;5.60;;;2.92;;
80536;SDS011;69867;47.074;15.404;2023-05-07T09:13:23;4.25;;;3.30;;
80536;SDS011;69867;47.074;15.404;2023-05-07T09:15:49;3.88;;;2.70;;
80536;SDS011;69867;47.074;15.404;2023-05-07T09:18:14;4.65;;;3.03;;
80536;SDS011;69867;47.074;15.404;2023-05-07T09:20:41;3.65;;;3.03;;
80536;SDS011;69867;47.074;15.404;2023-05-07T09:23:07;3.67;;;2.60;;
80536;SDS011;69867;47.074;15.404;2023-05-07T09:25:33;4.50;;;3.35;;
80536;SDS011;69867;47.074;15.404;2023-05-07T09:28:00;4.63;;;2.90;;
80536;SDS011;69867;47.074;15.404;2023-05-07T09:30:30;3.95;;;2.78;;
80536;SDS011;69867;47.074;15.404;2023-05-07T09:32:57;4.13;;;2.90;;
80536;SDS011;69867;47.074;15.404;2023-05-07T09:35:23;5.20;;;3.00;;
80536;SDS011;69867;47.074;15.404;2023-05-07T09:37:48;5.32;;;3.58;;
80536;SDS011;69867;47.074;15.404;2023-05-07T09:40:27;3.42;;;2.28;;
80536;SDS011;69867;47.074;15.404;2023-05-07T09:42:54;6.20;;;3.25;;
80536;SDS011;69867;47.074;15.404;2023-05-07T09:45:24;3.78;;;2.72;;
80536;SDS011;69867;47.074;15.404;2023-05-07T09:47:53;4.10;;;2.45;;
80536;SDS011;69867;47.074;15.404;2023-05-07T09:50:19;4.38;;;3.05;;
80536;SDS011;69867;47.074;15.404;2023-05-07T09:52:50;5.60;;;3.20;;
80536;SDS011;69867;47.074;15.404;2023-05-07T09:55:16;3.80;;;2.72;;
80536;SDS011;69867;47.074;15.404;2023-05-07T09:57:42;3.97;;;2.83;;
80536;SDS011;69867;47.074;15.404;2023-05-07T10:00:08;5.95;;;2.90;;
80536;SDS011;69867;47.074;15.404;2023-05-07T10:02:35;4.43;;;3.30;;
80536;SDS011;69867;47.074;15.404;2023-05-07T10:05:01;5.10;;;3.00;;
80536;SDS011;69867;47.074;15.404;2023-05-07T10:07:27;4.50;;;2.83;;
80536;SDS011;69867;47.074;15.404;2023-05-07T10:09:53;4.13;;;3.22;;
80536;SDS011;69867;47.074;15.404;2023-05-07T10:12:19;3.40;;;2.47;;
80536;SDS011;69867;47.074;15.404;2023-05-07T10:14:45;3.70;;;2.80;;
80536;SDS011;69867;47.074;15.404;2023-05-07T10:17:11;3.60;;;2.60;;
80536;SDS011;69867;47.074;15.404;2023-05-07T10:19:37;3.30;;;2.60;;
80536;SDS011;69867;47.074;15.404;2023-05-07T10:22:05;4.43;;;2.95;;
80536;SDS011;69867;47.074;15.404;2023-05-07T10:24:34;4.40;;;2.83;;
80536;SDS011;69867;47.074;15.404;2023-05-07T10:27:01;4.25;;;3.00;;
80536;SDS011;69867;47.074;15.404;2023-05-07T10:32:42;4.22;;;2.78;;
80536;SDS011;69867;47.074;15.404;2023-05-07T10:35:14;3.53;;;2.63;;
80536;SDS011;69867;47.074;15.404;2023-05-07T10:37:42;4.03;;;2.40;;
80536;SDS011;69867;47.074;15.404;2023-05-07T10:40:09;4.63;;;2.75;;
80536;SDS011;69867;47.074;15.404;2023-05-07T10:42:35;3.83;;;2.90;;
80536;SDS011;69867;47.074;15.404;2023-05-07T10:45:13;3.53;;;2.63;;
80536;SDS011;69867;47.074;15.404;2023-05-07T10:50:37;3.60;;;2.47;;
80536;SDS011;69867;47.074;15.404;2023-05-07T10:55:44;7.38;;;3.40;;
80536;SDS011;69867;47.074;15.404;2023-05-07T10:58:22;5.60;;;3.10;;
80536;SDS011;69867;47.074;15.404;2023-05-07T11:00:49;3.45;;;2.40;;
80536;SDS011;69867;47.074;15.404;2023-05-07T11:03:14;5.03;;;3.40;;
80536;SDS011;69867;47.074;15.404;2023-05-07T11:05:40;6.35;;;2.65;;
80536;SDS011;69867;47.074;15.404;2023-05-07T11:08:07;3.95;;;2.88;;
80536;SDS011;69867;47.074;15.404;2023-05-07T11:18:49;3.72;;;2.63;;
80536;SDS011;69867;47.074;15.404;2023-05-07T11:21:37;3.80;;;2.38;;
80536;SDS011;69867;47.074;15.404;2023-05-07T11:24:04;4.25;;;2.80;;
80536;SDS011;69867;47.074;15.404;2023-05-07T11:26:31;4.03;;;2.30;;
80536;SDS011;69867;47.074;15.404;2023-05-07T11:29:11;3.00;;;2.38;;
80536;SDS011;69867;47.074;15.404;2023-05-07T11:31:40;3.90;;;2.50;;
80536;SDS011;69867;47.074;15.404;2023-05-07T11:34:06;3.53;;;2.53;;
80536;SDS011;69867;47.074;15.404;2023-05-07T11:36:32;4.03;;;2.50;;
80536;SDS011;69867;47.074;15.404;2023-05-07T11:38:58;3.22;;;2.15;;
80536;SDS011;69867;47.074;15.404;2023-05-07T11:41:32;3.63;;;2.05;;
80536;SDS011;69867;47.074;15.404;2023-05-07T11:43:59;3.28;;;2.33;;
80536;SDS011;69867;47.074;15.404;2023-05-07T11:46:24;3.42;;;2.40;;
80536;SDS011;69867;47.074;15.404;2023-05-07T11:48:51;3.13;;;1.95;;
80536;SDS011;69867;47.074;15.404;2023-05-07T11:51:23;4.50;;;2.63;;
80536;SDS011;69867;47.074;15.404;2023-05-07T11:53:50;3.20;;;2.13;;
80536;SDS011;69867;47.074;15.404;2023-05-07T11:56:16;3.85;;;2.33;;
80536;SDS011;69867;47.074;15.404;2023-05-07T11:58:42;3.20;;;2.17;;
80536;SDS011;69867;47.074;15.404;2023-05-07T12:01:09;3.90;;;2.40;;
80536;SDS011;69867;47.074;15.404;2023-05-07T12:03:36;5.30;;;4.10;;
80536;SDS011;69867;47.074;15.404;2023-05-07T12:06:04;4.95;;;3.15;;
80536;SDS011;69867;47.074;15.404;2023-05-07T12:08:31;3.13;;;2.50;;
80536;SDS011;69867;47.074;15.404;2023-05-07T12:10:56;4.22;;;2.53;;
80536;SDS011;69867;47.074;15.404;2023-05-07T12:13:22;3.03;;;2.03;;
80536;SDS011;69867;47.074;15.404;2023-05-07T12:15:51;3.10;;;2.28;;
80536;SDS011;69867;47.074;15.404;2023-05-07T12:18:20;3.97;;;2.28;;
80536;SDS011;69867;47.074;15.404;2023-05-07T12:20:47;2.78;;;1.92;;
80536;SDS011;69867;47.074;15.404;2023-05-07T12:23:13;3.60;;;2.20;;
80536;SDS011;69867;47.074;15.404;2023-05-07T12:25:39;3.83;;;2.45;;
80536;SDS011;69867;47.074;15.404;2023-05-07T12:28:05;3.33;;;2.53;;
80536;SDS011;69867;47.074;15.404;2023-05-07T12:30:32;3.10;;;2.30;;
80536;SDS011;69867;47.074;15.404;2023-05-07T12:33:02;3.15;;;2.22;;
80536;SDS011;69867;47.074;15.404;2023-05-07T12:37:59;2.88;;;2.22;;
80536;SDS011;69867;47.074;15.404;2023-05-07T12:43:03;4.10;;;2.70;;
80536;SDS011;69867;47.074;15.404;2023-05-07T12:45:29;4.70;;;3.10;;
80536;SDS011;69867;47.074;15.404;2023-05-07T12:47:54;4.38;;;2.30;;
80536;SDS011;69867;47.074;15.404;2023-05-07T12:50:20;4.20;;;2.40;;
80536;SDS011;69867;47.074;15.404;2023-05-07T12:52:45;3.15;;;2.10;;
80536;SDS011;69867;47.074;15.404;2023-05-07T12:55:13;3.67;;;2.20;;
80536;SDS011;69867;47.074;15.404;2023-05-07T12:58:00;3.78;;;2.42;;
80536;SDS011;69867;47.074;15.404;2023-05-07T13:00:35;3.53;;;2.53;;
80536;SDS011;69867;47.074;15.404;2023-05-07T13:03:02;3.47;;;2.28;;
80536;SDS011;69867;47.074;15.404;2023-05-07T13:05:27;3.22;;;1.70;;
80536;SDS011;69867;47.074;15.404;2023-05-07T13:07:53;3.13;;;2.30;;
80536;SDS011;69867;47.074;15.404;2023-05-07T13:10:19;4.10;;;2.97;;
80536;SDS011;69867;47.074;15.404;2023-05-07T13:12:45;6.63;;;3.92;;
80536;SDS011;69867;47.074;15.404;2023-05-07T13:15:10;5.85;;;3.88;;
80536;SDS011;69867;47.074;15.404;2023-05-07T13:17:36;5.13;;;2.67;;
80536;SDS011;69867;47.074;15.404;2023-05-07T13:20:01;4.75;;;2.10;;
80536;SDS011;69867;47.074;15.404;2023-05-07T13:22:27;5.45;;;1.90;;
80536;SDS011;69867;47.074;15.404;2023-05-07T13:24:52;4.05;;;2.03;;
80536;SDS011;69867;47.074;15.404;2023-05-07T13:27:17;4.35;;;2.53;;
80536;SDS011;69867;47.074;15.404;2023-05-07T13:29:43;3.80;;;2.00;;
80536;SDS011;69867;47.074;15.404;2023-05-07T13:32:08;3.22;;;1.83;;
80536;SDS011;69867;47.074;15.404;2023-05-07T13:34:33;2.95;;;1.50;;
80536;SDS011;69867;47.074;15.404;2023-05-07T13:36:59;3.63;;;2.00;;
80536;SDS011;69867;47.074;15.404;2023-05-07T13:39:24;3.72;;;1.80;;
80536;SDS011;69867;47.074;15.404;2023-05-07T13:41:49;7.15;;;2.60;;
80536;SDS011;69867;47.074;15.404;2023-05-07T13:44:14;5.60;;;3.63;;
80536;SDS011;69867;47.074;15.404;2023-05-07T13:46:40;4.35;;;2.58;;
80536;SDS011;69867;47.074;15.404;2023-05-07T13:49:05;3.58;;;2.00;;
80536;SDS011;69867;47.074;15.404;2023-05-07T13:51:30;5.18;;;2.10;;
80536;SDS011;69867;47.074;15.404;2023-05-07T13:53:56;5.68;;;2.45;;
80536;SDS011;69867;47.074;15.404;2023-05-07T13:56:21;4.47;;;2.95;;
80536;SDS011;69867;47.074;15.404;2023-05-07T13:58:46;7.65;;;4.80;;
80536;SDS011;69867;47.074;15.404;2023-05-07T14:01:12;9.65;;;6.40;;
80536;SDS011;69867;47.074;15.404;2023-05-07T14:03:37;9.77;;;6.38;;
80536;SDS011;69867;47.074;15.404;2023-05-07T14:06:03;9.68;;;6.78;;
80536;SDS011;69867;47.074;15.404;2023-05-07T14:08:28;10.98;;;7.25;;
80536;SDS011;69867;47.074;15.404;2023-05-07T14:10:54;11.15;;;7.63;;
80536;SDS011;69867;47.074;15.404;2023-05-07T14:13:19;11.15;;;7.32;;
80536;SDS011;69867;47.074;15.404;2023-05-07T14:15:45;9.35;;;6.80;;
80536;SDS011;69867;47.074;15.404;2023-05-07T14:18:10;10.57;;;7.43;;
80536;SDS011;69867;47.074;15.404;2023-05-07T14:20:35;10.60;;;7.80;;
80536;SDS011;69867;47.074;15.404;2023-05-07T14:23:01;9.15;;;6.53;;
80536;SDS011;69867;47.074;15.404;2023-05-07T14:25:26;10.48;;;7.60;;
80536;SDS011;69867;47.074;15.404;2023-05-07T14:27:51;10.80;;;7.35;;
80536;SDS011;69867;47.074;15.404;2023-05-07T14:30:17;10.27;;;6.80;;
80536;SDS011;69867;47.074;15.404;2023-05-07T14:32:42;9.00;;;6.30;;
80536;SDS011;69867;47.074;15.404;2023-05-07T14:35:07;7.50;;;5.80;;
80536;SDS011;69867;47.074;15.404;2023-05-07T14:37:33;10.63;;;6.82;;
80536;SDS011;69867;47.074;15.404;2023-05-07T14:39:58;8.60;;;6.18;;
80536;SDS011;69867;47.074;15.404;2023-05-07T14:42:23;9.48;;;6.68;;
80536;SDS011;69867;47.074;15.404;2023-05-07T14:44:49;7.63;;;6.47;;
80536;SDS011;69867;47.074;15.404;2023-05-07T14:47:14;8.73;;;6.30;;